sensor_id;sensor_type;location;lat;lon;timestamp;pressure;altitude;pressure_sealevel;temperature;humidity
39051;BME280;24805;55.852;37.644;2023-06-14T00:03:02;99792.72;;;14.93;43.65
39051;BME280;24805;55.852;37.644;2023-06-14T00:08:07;99784.44;;;14.81;44.54
39051;BME280;24805;55.852;37.644;2023-06-14T00:13:10;99773.69;;;14.68;44.70
39051;BME280;24805;55.852;37.644;2023-06-14T00:18:12;99777.19;;;14.68;44.80
39051;BME280;24805;55.852;37.644;2023-06-14T00:23:14;99783.72;;;15.07;40.70
39051;BME280;24805;55.852;37.644;2023-06-14T00:28:16;99783.94;;;14.58;45.27
39051;BME280;24805;55.852;37.644;2023-06-14T00:33:19;99790.81;;;14.45;45.21
39051;BME280;24805;55.852;37.644;2023-06-14T00:38:21;99784.22;;;14.41;45.40
39051;BME280;24805;55.852;37.644;2023-06-14T00:43:23;99779.28;;;14.79;41.70
39051;BME280;24805;55.852;37.644;2023-06-14T00:48:25;99780.47;;;14.36;45.50
39051;BME280;24805;55.852;37.644;2023-06-14T00:53:28;99762.50;;;14.17;45.52
39051;BME280;24805;55.852;37.644;2023-06-14T00:58:32;99789.44;;;14.28;46.41
39051;BME280;24805;55.852;37.644;2023-06-14T01:03:34;99780.19;;;14.24;46.59
39051;BME280;24805;55.852;37.644;2023-06-14T01:09:21;99774.66;;;14.26;46.47
39051;BME280;24805;55.852;37.644;2023-06-14T01:14:02;99775.84;;;14.23;46.44
39051;BME280;24805;55.852;37.644;2023-06-14T01:19:05;99786.34;;;14.25;46.09
39051;BME280;24805;55.852;37.644;2023-06-14T01:24:09;99785.97;;;14.28;46.79
39051;BME280;24805;55.852;37.644;2023-06-14T01:29:14;99783.97;;;14.36;46.90
39051;BME280;24805;55.852;37.644;2023-06-14T01:34:20;99786.66;;;14.36;46.46
39051;BME280;24805;55.852;37.644;2023-06-14T01:39:25;99788.34;;;14.44;46.31
39051;BME280;24805;55.852;37.644;2023-06-14T01:44:30;99792.53;;;14.53;46.65
39051;BME280;24805;55.852;37.644;2023-06-14T01:49:35;99792.16;;;14.63;46.69
39051;BME280;24805;55.852;37.644;2023-06-14T01:54:37;99798.16;;;14.71;46.16
39051;BME280;24805;55.852;37.644;2023-06-14T01:59:44;99787.09;;;14.81;46.21
39051;BME280;24805;55.852;37.644;2023-06-14T02:04:50;99793.75;;;14.92;46.06
39051;BME280;24805;55.852;37.644;2023-06-14T02:09:52;99790.69;;;15.01;45.71
39051;BME280;24805;55.852;37.644;2023-06-14T02:14:57;99794.22;;;15.08;45.22
39051;BME280;24805;55.852;37.644;2023-06-14T02:19:59;99798.97;;;15.20;45.23
39051;BME280;24805;55.852;37.644;2023-06-14T02:25:02;99792.66;;;15.27;45.25
39051;BME280;24805;55.852;37.644;2023-06-14T02:30:05;99793.69;;;15.39;45.48
39051;BME280;24805;55.852;37.644;2023-06-14T02:35:08;99802.56;;;15.46;44.69
39051;BME280;24805;55.852;37.644;2023-06-14T02:40:11;99792.72;;;15.54;45.08
39051;BME280;24805;55.852;37.644;2023-06-14T02:45:15;99806.53;;;15.64;44.59
39051;BME280;24805;55.852;37.644;2023-06-14T02:50:17;99807.19;;;15.72;44.29
39051;BME280;24805;55.852;37.644;2023-06-14T02:55:19;99815.00;;;15.80;44.09
39051;BME280;24805;55.852;37.644;2023-06-14T03:00:22;99803.06;;;15.90;44.16
39051;BME280;24805;55.852;37.644;2023-06-14T03:05:25;99814.59;;;16.03;44.36
39051;BME280;24805;55.852;37.644;2023-06-14T03:10:30;99815.03;;;16.13;44.00
39051;BME280;24805;55.852;37.644;2023-06-14T03:15:33;99816.66;;;16.21;43.70
39051;BME280;24805;55.852;37.644;2023-06-14T03:20:36;99825.09;;;16.31;43.60
39051;BME280;24805;55.852;37.644;2023-06-14T03:25:40;99821.56;;;16.44;43.77
39051;BME280;24805;55.852;37.644;2023-06-14T03:30:46;99822.00;;;16.54;43.13
39051;BME280;24805;55.852;37.644;2023-06-14T03:35:49;99819.91;;;16.63;43.38
39051;BME280;24805;55.852;37.644;2023-06-14T03:40:52;99813.72;;;16.75;43.19
39051;BME280;24805;55.852;37.644;2023-06-14T03:45:55;99804.22;;;16.86;42.80
39051;BME280;24805;55.852;37.644;2023-06-14T03:50:59;99808.47;;;17.00;42.69
39051;BME280;24805;55.852;37.644;2023-06-14T03:56:04;99807.22;;;17.09;42.45
39051;BME280;24805;55.852;37.644;2023-06-14T04:01:14;99805.72;;;17.20;42.36
39051;BME280;24805;55.852;37.644;2023-06-14T04:06:16;99819.06;;;17.33;42.18
39051;BME280;24805;55.852;37.644;2023-06-14T04:11:22;99810.72;;;17.48;41.85
39051;BME280;24805;55.852;37.644;2023-06-14T04:16:24;99806.94;;;17.62;41.08
39051;BME280;24805;55.852;37.644;2023-06-14T04:21:27;99817.56;;;17.82;40.58
39051;BME280;24805;55.852;37.644;2023-06-14T04:26:33;99808.75;;;18.00;40.18
39051;BME280;24805;55.852;37.644;2023-06-14T04:31:36;99795.84;;;18.15;40.24
39051;BME280;24805;55.852;37.644;2023-06-14T04:36:44;99802.91;;;18.34;39.21
39051;BME280;24805;55.852;37.644;2023-06-14T04:42:00;99804.19;;;18.50;38.95
39051;BME280;24805;55.852;37.644;2023-06-14T04:47:03;99807.13;;;18.67;38.88
39051;BME280;24805;55.852;37.644;2023-06-14T04:52:06;99806.31;;;18.84;38.33
39051;BME280;24805;55.852;37.644;2023-06-14T04:57:12;99809.81;;;19.03;37.98
39051;BME280;24805;55.852;37.644;2023-06-14T05:02:23;99809.19;;;19.19;38.42
39051;BME280;24805;55.852;37.644;2023-06-14T05:07:26;99804.50;;;19.33;38.15
39051;BME280;24805;55.852;37.644;2023-06-14T05:12:28;99799.69;;;19.53;37.35
39051;BME280;24805;55.852;37.644;2023-06-14T05:17:31;99795.66;;;19.74;36.94
39051;BME280;24805;55.852;37.644;2023-06-14T05:22:33;99805.06;;;19.95;36.68
39051;BME280;24805;55.852;37.644;2023-06-14T05:27:36;99810.72;;;20.17;36.41
39051;BME280;24805;55.852;37.644;2023-06-14T05:32:39;99801.13;;;20.44;36.18
39051;BME280;24805;55.852;37.644;2023-06-14T05:37:41;99802.06;;;21.25;34.65
39051;BME280;24805;55.852;37.644;2023-06-14T05:42:44;99803.88;;;23.03;31.50
39051;BME280;24805;55.852;37.644;2023-06-14T05:47:46;99796.31;;;24.92;28.35
39051;BME280;24805;55.852;37.644;2023-06-14T05:52:48;99796.63;;;26.34;26.62
39051;BME280;24805;55.852;37.644;2023-06-14T05:57:50;99797.59;;;27.43;24.77
39051;BME280;24805;55.852;37.644;2023-06-14T06:02:53;99799.44;;;28.31;23.87
39051;BME280;24805;55.852;37.644;2023-06-14T06:07:59;99808.03;;;28.96;21.64
39051;BME280;24805;55.852;37.644;2023-06-14T06:13:02;99803.72;;;29.57;20.83
39051;BME280;24805;55.852;37.644;2023-06-14T06:18:04;99802.00;;;30.44;20.01
39051;BME280;24805;55.852;37.644;2023-06-14T06:23:06;99795.59;;;31.45;18.76
39051;BME280;24805;55.852;37.644;2023-06-14T06:28:09;99799.53;;;32.11;18.08
39051;BME280;24805;55.852;37.644;2023-06-14T06:33:11;99794.03;;;33.12;17.08
39051;BME280;24805;55.852;37.644;2023-06-14T06:38:14;99789.72;;;33.63;15.85
39051;BME280;24805;55.852;37.644;2023-06-14T06:43:17;99789.09;;;33.49;15.81
39051;BME280;24805;55.852;37.644;2023-06-14T06:48:22;99770.66;;;33.75;15.44
39051;BME280;24805;55.852;37.644;2023-06-14T06:53:24;99778.16;;;34.39;14.86
39051;BME280;24805;55.852;37.644;2023-06-14T06:58:42;99779.59;;;34.45;14.84
39051;BME280;24805;55.852;37.644;2023-06-14T07:03:44;99782.19;;;35.38;14.68
39051;BME280;24805;55.852;37.644;2023-06-14T07:08:46;99779.84;;;35.90;13.82
39051;BME280;24805;55.852;37.644;2023-06-14T07:13:52;99784.63;;;37.08;13.08
39051;BME280;24805;55.852;37.644;2023-06-14T07:18:54;99785.31;;;37.57;12.65
39051;BME280;24805;55.852;37.644;2023-06-14T07:23:56;99769.84;;;37.97;12.43
39051;BME280;24805;55.852;37.644;2023-06-14T07:28:59;99768.22;;;38.23;11.81
39051;BME280;24805;55.852;37.644;2023-06-14T07:34:01;99762.41;;;37.57;11.80
39051;BME280;24805;55.852;37.644;2023-06-14T07:39:04;99770.66;;;37.29;11.99
39051;BME280;24805;55.852;37.644;2023-06-14T07:44:08;99767.16;;;38.75;11.80
39051;BME280;24805;55.852;37.644;2023-06-14T07:49:10;99758.13;;;39.68;10.53
39051;BME280;24805;55.852;37.644;2023-06-14T07:54:12;99760.31;;;40.66;9.84
39051;BME280;24805;55.852;37.644;2023-06-14T07:59:16;99757.84;;;40.83;9.75
39051;BME280;24805;55.852;37.644;2023-06-14T08:04:18;99760.25;;;40.62;9.63
39051;BME280;24805;55.852;37.644;2023-06-14T08:09:20;99754.31;;;41.43;9.56
39051;BME280;24805;55.852;37.644;2023-06-14T08:14:22;99755.16;;;42.61;8.68
39051;BME280;24805;55.852;37.644;2023-06-14T08:19:25;99761.81;;;43.77;8.14
39051;BME280;24805;55.852;37.644;2023-06-14T08:24:27;99760.31;;;44.19;7.99
39051;BME280;24805;55.852;37.644;2023-06-14T08:29:29;99747.94;;;44.16;7.99
39051;BME280;24805;55.852;37.644;2023-06-14T08:34:32;99747.16;;;44.62;7.63
39051;BME280;24805;55.852;37.644;2023-06-14T08:39:34;99747.84;;;45.23;7.01
39051;BME280;24805;55.852;37.644;2023-06-14T08:44:37;99736.75;;;44.59;6.96
39051;BME280;24805;55.852;37.644;2023-06-14T08:49:40;99755.69;;;42.30;8.71
39051;BME280;24805;55.852;37.644;2023-06-14T08:54:46;99739.94;;;43.07;8.74
39051;BME280;24805;55.852;37.644;2023-06-14T08:59:51;99722.34;;;44.00;7.67
39051;BME280;24805;55.852;37.644;2023-06-14T09:04:55;99731.16;;;45.85;7.00
39051;BME280;24805;55.852;37.644;2023-06-14T09:10:07;99732.81;;;47.51;6.76
39051;BME280;24805;55.852;37.644;2023-06-14T09:15:10;99709.25;;;45.70;6.86
39051;BME280;24805;55.852;37.644;2023-06-14T09:20:12;99721.41;;;43.57;7.50
39051;BME280;24805;55.852;37.644;2023-06-14T09:25:21;99714.81;;;44.15;7.64
39051;BME280;24805;55.852;37.644;2023-06-14T09:30:40;99718.78;;;44.67;7.13
39051;BME280;24805;55.852;37.644;2023-06-14T09:35:45;99725.38;;;46.14;6.43
39051;BME280;24805;55.852;37.644;2023-06-14T09:40:47;99710.97;;;47.62;6.16
39051;BME280;24805;55.852;37.644;2023-06-14T09:45:51;99705.44;;;48.36;5.32
39051;BME280;24805;55.852;37.644;2023-06-14T09:50:55;99709.88;;;48.33;5.56
39051;BME280;24805;55.852;37.644;2023-06-14T09:56:00;99712.84;;;48.49;4.82
39051;BME280;24805;55.852;37.644;2023-06-14T10:01:02;99702.47;;;48.66;5.20
39051;BME280;24805;55.852;37.644;2023-06-14T10:06:08;99700.50;;;48.63;5.03
39051;BME280;24805;55.852;37.644;2023-06-14T10:11:12;99693.38;;;48.35;5.55
39051;BME280;24805;55.852;37.644;2023-06-14T10:26:54;99664.78;;;48.60;5.95
39051;BME280;24805;55.852;37.644;2023-06-14T10:32:01;99672.16;;;47.80;5.73
39051;BME280;24805;55.852;37.644;2023-06-14T10:37:10;99663.34;;;47.78;5.96
39051;BME280;24805;55.852;37.644;2023-06-14T10:42:14;99664.59;;;46.00;6.54
39051;BME280;24805;55.852;37.644;2023-06-14T10:47:29;99663.22;;;44.73;6.94
39051;BME280;24805;55.852;37.644;2023-06-14T10:52:38;99651.69;;;44.31;7.43
39051;BME280;24805;55.852;37.644;2023-06-14T10:57:46;99648.88;;;44.49;7.74
39051;BME280;24805;55.852;37.644;2023-06-14T11:13:33;99629.91;;;47.30;6.09
39051;BME280;24805;55.852;37.644;2023-06-14T11:18:36;99633.09;;;48.13;6.09
39051;BME280;24805;55.852;37.644;2023-06-14T11:23:38;99630.44;;;48.69;5.03
39051;BME280;24805;55.852;37.644;2023-06-14T11:28:41;99630.72;;;49.14;5.06
39051;BME280;24805;55.852;37.644;2023-06-14T11:33:49;99640.53;;;49.25;5.25
39051;BME280;24805;55.852;37.644;2023-06-14T11:39:01;99629.94;;;48.74;5.36
39051;BME280;24805;55.852;37.644;2023-06-14T11:44:06;99620.94;;;48.39;5.28
39051;BME280;24805;55.852;37.644;2023-06-14T11:49:09;99614.88;;;47.71;5.63
39051;BME280;24805;55.852;37.644;2023-06-14T11:54:11;99607.41;;;47.60;6.09
39051;BME280;24805;55.852;37.644;2023-06-14T11:59:14;99606.50;;;47.13;5.76
39051;BME280;24805;55.852;37.644;2023-06-14T12:04:24;99609.41;;;47.03;6.05
39051;BME280;24805;55.852;37.644;2023-06-14T12:09:26;99604.59;;;46.35;6.81
39051;BME280;24805;55.852;37.644;2023-06-14T12:14:31;99597.03;;;46.32;6.35
39051;BME280;24805;55.852;37.644;2023-06-14T12:19:33;99596.56;;;45.96;6.38
39051;BME280;24805;55.852;37.644;2023-06-14T12:24:43;99597.19;;;45.62;6.73
39051;BME280;24805;55.852;37.644;2023-06-14T12:29:46;99585.88;;;45.14;6.84
39051;BME280;24805;55.852;37.644;2023-06-14T12:34:48;99581.38;;;44.33;7.15
39051;BME280;24805;55.852;37.644;2023-06-14T12:39:51;99563.44;;;44.16;7.39
39051;BME280;24805;55.852;37.644;2023-06-14T12:44:53;99577.00;;;43.93;7.26
39051;BME280;24805;55.852;37.644;2023-06-14T12:49:56;99563.66;;;42.97;7.60
39051;BME280;24805;55.852;37.644;2023-06-14T12:54:58;99562.91;;;41.73;8.26
39051;BME280;24805;55.852;37.644;2023-06-14T13:00:00;99563.00;;;40.73;8.71
39051;BME280;24805;55.852;37.644;2023-06-14T13:05:05;99555.28;;;39.57;9.23
39051;BME280;24805;55.852;37.644;2023-06-14T13:10:07;99564.63;;;39.07;9.87
39051;BME280;24805;55.852;37.644;2023-06-14T13:15:10;99554.84;;;38.93;10.11
39051;BME280;24805;55.852;37.644;2023-06-14T13:20:12;99555.63;;;38.40;9.96
39051;BME280;24805;55.852;37.644;2023-06-14T13:25:15;99540.69;;;37.31;10.33
39051;BME280;24805;55.852;37.644;2023-06-14T13:30:17;99535.38;;;35.69;11.76
39051;BME280;24805;55.852;37.644;2023-06-14T13:35:20;99542.88;;;34.48;12.39
39051;BME280;24805;55.852;37.644;2023-06-14T13:40:22;99539.16;;;33.47;13.27
39051;BME280;24805;55.852;37.644;2023-06-14T13:45:24;99536.97;;;32.63;13.71
39051;BME280;24805;55.852;37.644;2023-06-14T13:50:27;99530.81;;;31.83;14.76
39051;BME280;24805;55.852;37.644;2023-06-14T13:55:29;99529.75;;;31.09;15.61
39051;BME280;24805;55.852;37.644;2023-06-14T14:00:31;99534.63;;;30.54;16.16
39051;BME280;24805;55.852;37.644;2023-06-14T14:05:34;99529.53;;;30.25;16.52
39051;BME280;24805;55.852;37.644;2023-06-14T14:10:36;99525.72;;;29.98;16.43
39051;BME280;24805;55.852;37.644;2023-06-14T14:15:38;99528.44;;;29.85;16.59
39051;BME280;24805;55.852;37.644;2023-06-14T14:20:41;99524.97;;;29.65;17.84
39051;BME280;24805;55.852;37.644;2023-06-14T14:25:43;99517.09;;;29.50;17.80
39051;BME280;24805;55.852;37.644;2023-06-14T14:30:46;99531.81;;;29.35;17.73
39051;BME280;24805;55.852;37.644;2023-06-14T14:35:49;99517.81;;;29.23;17.93
39051;BME280;24805;55.852;37.644;2023-06-14T14:40:51;99534.03;;;29.01;18.60
39051;BME280;24805;55.852;37.644;2023-06-14T14:45:53;99532.38;;;28.86;19.12
39051;BME280;24805;55.852;37.644;2023-06-14T14:50:55;99533.09;;;28.73;19.13
39051;BME280;24805;55.852;37.644;2023-06-14T14:55:58;99529.00;;;28.57;19.15
39051;BME280;24805;55.852;37.644;2023-06-14T15:01:00;99534.50;;;28.52;19.27
39051;BME280;24805;55.852;37.644;2023-06-14T15:06:02;99542.03;;;28.41;19.59
39051;BME280;24805;55.852;37.644;2023-06-14T15:11:04;99537.31;;;28.28;19.91
39051;BME280;24805;55.852;37.644;2023-06-14T15:16:07;99537.47;;;28.12;20.08
39051;BME280;24805;55.852;37.644;2023-06-14T15:21:09;99533.25;;;28.01;19.81
39051;BME280;24805;55.852;37.644;2023-06-14T15:26:11;99526.88;;;27.87;20.12
39051;BME280;24805;55.852;37.644;2023-06-14T15:31:13;99542.91;;;27.70;20.19
39051;BME280;24805;55.852;37.644;2023-06-14T15:36:16;99542.41;;;27.63;20.20
39051;BME280;24805;55.852;37.644;2023-06-14T15:41:18;99539.53;;;27.49;20.15
39051;BME280;24805;55.852;37.644;2023-06-14T15:46:21;99526.69;;;27.26;19.72
39051;BME280;24805;55.852;37.644;2023-06-14T15:51:23;99542.19;;;27.30;20.52
39051;BME280;24805;55.852;37.644;2023-06-14T15:56:25;99554.03;;;27.16;19.70
39051;BME280;24805;55.852;37.644;2023-06-14T16:01:27;99552.56;;;26.94;19.49
39051;BME280;24805;55.852;37.644;2023-06-14T16:06:30;99551.53;;;26.80;19.86
39051;BME280;24805;55.852;37.644;2023-06-14T16:11:32;99557.09;;;26.65;19.86
39051;BME280;24805;55.852;37.644;2023-06-14T16:16:34;99556.38;;;26.49;20.01
39051;BME280;24805;55.852;37.644;2023-06-14T16:21:36;99533.13;;;26.18;19.76
39051;BME280;24805;55.852;37.644;2023-06-14T16:26:38;99559.47;;;26.22;20.07
39051;BME280;24805;55.852;37.644;2023-06-14T16:31:40;99555.19;;;26.06;20.04
39051;BME280;24805;55.852;37.644;2023-06-14T16:36:44;99564.78;;;25.88;20.43
39051;BME280;24805;55.852;37.644;2023-06-14T16:41:46;99564.81;;;25.73;20.66
39051;BME280;24805;55.852;37.644;2023-06-14T16:46:49;99574.59;;;25.59;20.72
39051;BME280;24805;55.852;37.644;2023-06-14T16:51:51;99549.13;;;25.29;20.53
39051;BME280;24805;55.852;37.644;2023-06-14T16:56:53;99574.91;;;25.27;21.05
39051;BME280;24805;55.852;37.644;2023-06-14T17:02:03;99585.22;;;25.25;20.25
39051;BME280;24805;55.852;37.644;2023-06-14T17:07:07;99584.38;;;24.99;20.53
39051;BME280;24805;55.852;37.644;2023-06-14T17:12:09;99578.63;;;24.80;20.85
39051;BME280;24805;55.852;37.644;2023-06-14T17:17:13;99582.69;;;24.62;20.57
39051;BME280;24805;55.852;37.644;2023-06-14T17:22:16;99587.00;;;24.48;21.06
39051;BME280;24805;55.852;37.644;2023-06-14T17:27:18;99592.63;;;24.31;21.00
39051;BME280;24805;55.852;37.644;2023-06-14T17:32:20;99590.91;;;24.15;21.04
39051;BME280;24805;55.852;37.644;2023-06-14T17:37:22;99595.97;;;23.96;21.15
39051;BME280;24805;55.852;37.644;2023-06-14T17:42:24;99591.78;;;23.79;22.29
39051;BME280;24805;55.852;37.644;2023-06-14T17:47:27;99601.41;;;23.59;22.09
39051;BME280;24805;55.852;37.644;2023-06-14T17:52:37;99589.09;;;23.42;22.91
39051;BME280;24805;55.852;37.644;2023-06-14T17:57:39;99607.91;;;23.26;23.44
39051;BME280;24805;55.852;37.644;2023-06-14T18:02:41;99610.69;;;23.05;23.74
39051;BME280;24805;55.852;37.644;2023-06-14T18:07:47;99619.81;;;22.93;24.13
39051;BME280;24805;55.852;37.644;2023-06-14T18:12:49;99609.81;;;22.72;24.73
39051;BME280;24805;55.852;37.644;2023-06-14T18:17:52;99611.47;;;22.51;24.77
39051;BME280;24805;55.852;37.644;2023-06-14T18:22:56;99613.78;;;22.38;25.18
39051;BME280;24805;55.852;37.644;2023-06-14T18:27:58;99615.13;;;22.18;25.79
39051;BME280;24805;55.852;37.644;2023-06-14T18:33:00;99613.28;;;22.02;25.99
39051;BME280;24805;55.852;37.644;2023-06-14T18:38:02;99615.03;;;21.91;26.44
39051;BME280;24805;55.852;37.644;2023-06-14T18:43:04;99623.16;;;21.75;26.61
39051;BME280;24805;55.852;37.644;2023-06-14T18:48:06;99625.13;;;21.62;27.05
39051;BME280;24805;55.852;37.644;2023-06-14T18:53:09;99624.16;;;21.52;27.31
39051;BME280;24805;55.852;37.644;2023-06-14T18:58:11;99615.16;;;21.46;27.63
39051;BME280;24805;55.852;37.644;2023-06-14T19:03:14;99619.50;;;21.47;27.73
39051;BME280;24805;55.852;37.644;2023-06-14T19:08:17;99601.81;;;21.40;27.76
39051;BME280;24805;55.852;37.644;2023-06-14T19:13:19;99608.94;;;21.29;27.94
39051;BME280;24805;55.852;37.644;2023-06-14T19:18:21;99604.09;;;21.14;28.56
39051;BME280;24805;55.852;37.644;2023-06-14T19:23:25;99609.53;;;21.03;28.84
39051;BME280;24805;55.852;37.644;2023-06-14T19:28:28;99609.28;;;20.87;29.11
39051;BME280;24805;55.852;37.644;2023-06-14T19:33:30;99615.22;;;20.73;29.57
39051;BME280;24805;55.852;37.644;2023-06-14T19:38:32;99618.44;;;20.58;29.90
39051;BME280;24805;55.852;37.644;2023-06-14T19:43:34;99620.59;;;20.44;30.10
39051;BME280;24805;55.852;37.644;2023-06-14T19:48:36;99614.97;;;20.34;30.41
39051;BME280;24805;55.852;37.644;2023-06-14T19:53:38;99616.50;;;20.30;30.71
39051;BME280;24805;55.852;37.644;2023-06-14T19:58:41;99630.91;;;20.24;30.54
39051;BME280;24805;55.852;37.644;2023-06-14T20:03:43;99619.72;;;20.15;30.77
39051;BME280;24805;55.852;37.644;2023-06-14T20:08:45;99594.56;;;19.98;30.90
39051;BME280;24805;55.852;37.644;2023-06-14T20:13:48;99629.44;;;20.05;31.21
39051;BME280;24805;55.852;37.644;2023-06-14T20:18:51;99633.06;;;19.99;31.21
39051;BME280;24805;55.852;37.644;2023-06-14T20:23:53;99631.19;;;19.87;31.73
39051;BME280;24805;55.852;37.644;2023-06-14T20:28:55;99623.97;;;19.76;31.40
39051;BME280;24805;55.852;37.644;2023-06-14T20:33:58;99627.22;;;19.67;31.68
39051;BME280;24805;55.852;37.644;2023-06-14T20:39:00;99631.34;;;19.57;32.20
39051;BME280;24805;55.852;37.644;2023-06-14T20:44:02;99642.78;;;19.53;32.53
39051;BME280;24805;55.852;37.644;2023-06-14T20:49:04;99638.31;;;19.47;32.76
39051;BME280;24805;55.852;37.644;2023-06-14T20:54:07;99641.91;;;19.41;32.81
39051;BME280;24805;55.852;37.644;2023-06-14T20:59:09;99641.69;;;19.31;33.39
39051;BME280;24805;55.852;37.644;2023-06-14T21:04:11;99637.66;;;19.21;33.54
39051;BME280;24805;55.852;37.644;2023-06-14T21:09:13;99647.59;;;19.09;33.86
39051;BME280;24805;55.852;37.644;2023-06-14T21:14:15;99655.16;;;19.01;34.38
39051;BME280;24805;55.852;37.644;2023-06-14T21:19:18;99641.53;;;18.84;34.45
39051;BME280;24805;55.852;37.644;2023-06-14T21:24:20;99650.97;;;18.75;34.90
39051;BME280;24805;55.852;37.644;2023-06-14T21:29:23;99655.31;;;18.57;35.03
39051;BME280;24805;55.852;37.644;2023-06-14T21:34:25;99648.22;;;18.45;36.15
39051;BME280;24805;55.852;37.644;2023-06-14T21:39:27;99646.28;;;18.34;36.24
39051;BME280;24805;55.852;37.644;2023-06-14T21:44:29;99643.97;;;18.19;36.52
39051;BME280;24805;55.852;37.644;2023-06-14T21:49:31;99639.72;;;18.11;36.59
39051;BME280;24805;55.852;37.644;2023-06-14T21:54:34;99639.88;;;17.98;36.85
39051;BME280;24805;55.852;37.644;2023-06-14T21:59:36;99631.72;;;17.86;37.03
39051;BME280;24805;55.852;37.644;2023-06-14T22:04:38;99639.84;;;17.80;37.98
39051;BME280;24805;55.852;37.644;2023-06-14T22:09:40;99638.84;;;18.17;33.95
39051;BME280;24805;55.852;37.644;2023-06-14T22:14:43;99638.53;;;17.64;37.84
39051;BME280;24805;55.852;37.644;2023-06-14T22:19:50;99638.66;;;17.51;38.16
39051;BME280;24805;55.852;37.644;2023-06-14T22:24:54;99613.47;;;17.27;38.93
39051;BME280;24805;55.852;37.644;2023-06-14T22:29:57;99642.47;;;17.37;39.01
39051;BME280;24805;55.852;37.644;2023-06-14T22:35:00;99638.41;;;17.28;39.29
39051;BME280;24805;55.852;37.644;2023-06-14T22:40:07;99640.50;;;17.26;40.14
39051;BME280;24805;55.852;37.644;2023-06-14T22:45:14;99632.94;;;17.16;39.87
39051;BME280;24805;55.852;37.644;2023-06-14T22:50:28;99636.09;;;17.06;40.31
39051;BME280;24805;55.852;37.644;2023-06-14T22:55:30;99631.81;;;16.99;40.97
39051;BME280;24805;55.852;37.644;2023-06-14T23:00:32;99631.97;;;17.35;36.75
39051;BME280;24805;55.852;37.644;2023-06-14T23:05:35;99636.63;;;16.90;41.13
39051;BME280;24805;55.852;37.644;2023-06-14T23:10:40;99637.91;;;16.81;41.64
39051;BME280;24805;55.852;37.644;2023-06-14T23:15:42;99638.38;;;16.71;41.95
39051;BME280;24805;55.852;37.644;2023-06-14T23:20:45;99637.75;;;16.63;42.15
39051;BME280;24805;55.852;37.644;2023-06-14T23:25:47;99632.66;;;16.54;42.19
39051;BME280;24805;55.852;37.644;2023-06-14T23:30:50;99642.34;;;16.49;42.11
39051;BME280;24805;55.852;37.644;2023-06-14T23:35:53;99638.47;;;16.45;42.31
39051;BME280;24805;55.852;37.644;2023-06-14T23:40:56;99629.88;;;16.36;42.78
39051;BME280;24805;55.852;37.644;2023-06-14T23:45:59;99620.41;;;16.34;42.81
39051;BME280;24805;55.852;37.644;2023-06-14T23:51:01;99624.31;;;16.31;43.21
39051;BME280;24805;55.852;37.644;2023-06-14T23:56:04;99622.47;;;16.32;43.23
